Time;durP1;ratioP1;P1;durP2;ratioP2;P2;SDS_P1;SDS_P2;PMS_P1;PMS_P2;Temp;Humidity;BMP_temperature;BMP_pressure;BME280_temperature;BME280_humidity;BME280_pressure;Samples;Min_cycle;Max_cycle;Signal;HPM_P1;HPM_P2
2023/09/24 00:01:02;;;;;;;13.63;3.70;;;;;;;13.01;100.00;100644.03;5072813;28;20024;-90
2023/09/24 00:03:27;;;;;;;13.88;4.10;;;;;;;13.05;100.00;100635.16;5072826;28;20028;-91
2023/09/24 00:05:53;;;;;;;11.20;3.08;;;;;;;12.99;100.00;100633.75;5079815;28;20034;-90
2023/09/24 00:08:19;;;;;;;14.15;3.55;;;;;;;13.05;100.00;100635.16;5092496;28;20398;-91
2023/09/24 00:10:55;;;;;;;10.95;3.10;;;;;;;12.98;100.00;100632.13;5091632;28;20065;-91
2023/09/24 00:13:21;;;;;;;12.68;4.18;;;;;;;13.11;100.00;100631.31;5091517;28;20023;-91
2023/09/24 00:15:47;;;;;;;12.13;4.22;;;;;;;13.06;100.00;100622.06;5084592;28;20032;-91
2023/09/24 00:18:13;;;;;;;17.27;3.67;;;;;;;13.20;100.00;100616.00;5072244;28;20035;-90
2023/09/24 00:20:39;;;;;;;13.30;4.05;;;;;;;13.24;100.00;100625.25;5072565;28;20025;-91
2023/09/24 00:23:04;;;;;;;16.85;4.25;;;;;;;13.11;100.00;100621.78;5071081;28;20107;-91
2023/09/24 00:25:29;;;;;;;16.30;3.97;;;;;;;13.15;100.00;100617.25;5072357;28;20021;-91
2023/09/24 00:27:56;;;;;;;16.48;4.13;;;;;;;13.27;100.00;100619.88;5072501;28;20085;-91
2023/09/24 00:30:22;;;;;;;13.80;4.63;;;;;;;13.21;100.00;100617.66;5072514;28;20024;-91
2023/09/24 00:32:48;;;;;;;15.20;4.03;;;;;;;13.30;100.00;100615.44;5071038;28;20035;-90
2023/09/24 00:35:13;;;;;;;12.55;3.95;;;;;;;13.35;100.00;100614.19;5072577;28;20020;-90
2023/09/24 00:37:39;;;;;;;14.95;4.00;;;;;;;13.35;100.00;100624.56;5072495;28;20425;-90
2023/09/24 00:40:05;;;;;;;15.13;3.88;;;;;;;13.37;100.00;100622.69;5070998;28;20031;-91
2023/09/24 00:42:32;;;;;;;12.65;3.78;;;;;;;13.38;100.00;100616.56;5072328;28;20021;-91
2023/09/24 00:44:58;;;;;;;18.90;4.50;;;;;;;13.42;100.00;100619.81;5072960;28;20039;-91
2023/09/24 00:47:24;;;;;;;14.88;3.88;;;;;;;13.43;100.00;100611.09;5092377;28;20024;-90
2023/09/24 00:49:50;;;;;;;10.30;3.38;;;;;;;13.46;100.00;100616.91;5092436;28;20030;-89
2023/09/24 00:52:15;;;;;;;11.48;3.88;;;;;;;13.46;100.00;100616.06;5092283;28;20036;-92
2023/09/24 00:54:41;;;;;;;15.27;5.20;;;;;;;13.51;100.00;100613.16;5092454;28;20296;-92
2023/09/24 00:57:07;;;;;;;13.95;3.78;;;;;;;13.51;100.00;100615.75;5092406;28;20035;-89
2023/09/24 00:59:33;;;;;;;17.95;4.15;;;;;;;13.51;100.00;100613.16;5092074;28;20032;-92
2023/09/24 01:01:59;;;;;;;19.80;4.05;;;;;;;13.54;100.00;100612.97;5090579;28;20028;-92
2023/09/24 01:04:25;;;;;;;18.10;4.15;;;;;;;13.54;100.00;100610.38;5092023;28;20127;-92
2023/09/24 01:06:50;;;;;;;10.35;3.50;;;;;;;13.54;100.00;100598.25;5092157;28;20099;-92
2023/09/24 01:09:21;;;;;;;14.48;4.50;;;;;;;13.57;100.00;100595.44;5092374;28;20073;-93
2023/09/24 01:11:52;;;;;;;17.48;4.63;;;;;;;13.60;100.00;100595.22;5072108;28;20120;-92
2023/09/24 01:14:18;;;;;;;13.17;3.73;;;;;;;13.63;100.00;100597.63;5071797;28;20041;-92
2023/09/24 01:16:43;;;;;;;15.93;3.88;;;;;;;13.62;100.00;100582.97;5071807;28;20028;-92
2023/09/24 01:19:09;;;;;;;23.73;4.40;;;;;;;13.62;100.00;100587.34;5071853;28;20025;-92
2023/09/24 01:21:36;;;;;;;15.20;3.42;;;;;;;13.65;100.00;100590.56;5071862;28;20546;-92
2023/09/24 01:24:03;;;;;;;14.85;3.97;;;;;;;13.65;100.00;100594.91;5071572;28;20025;-92
2023/09/24 01:26:28;;;;;;;13.90;4.10;;;;;;;13.64;100.00;100593.28;5071707;28;20038;-92
2023/09/24 01:28:54;;;;;;;17.85;3.78;;;;;;;13.70;100.00;100593.69;5070429;28;20047;-92
2023/09/24 01:31:20;;;;;;;15.50;3.42;;;;;;;13.67;100.00;100587.88;5071452;28;20390;-92
2023/09/24 01:33:47;;;;;;;17.33;4.47;;;;;;;13.74;100.00;100583.91;5070404;28;20386;-92
2023/09/24 01:36:13;;;;;;;19.70;4.00;;;;;;;13.72;100.00;100578.00;5071703;28;20025;-92
2023/09/24 01:38:40;;;;;;;15.07;2.90;;;;;;;13.74;100.00;100578.72;5071589;28;20056;-93
2023/09/24 01:41:09;;;;;;;13.15;3.65;;;;;;;13.79;100.00;100588.78;5084989;28;20057;-92
2023/09/24 01:43:34;;;;;;;17.27;3.95;;;;;;;13.79;100.00;100579.25;5091701;28;20381;-92
2023/09/24 01:46:00;;;;;;;10.52;3.05;;;;;;;13.83;100.00;100574.69;5091540;28;20028;-92
2023/09/24 01:48:25;;;;;;;23.50;4.80;;;;;;;13.85;100.00;100570.19;5090367;28;20059;-91
2023/09/24 01:50:52;;;;;;;14.25;3.33;;;;;;;13.88;100.00;100572.59;5090417;28;20027;-92
2023/09/24 01:53:18;;;;;;;13.77;2.55;;;;;;;13.94;100.00;100566.97;5090272;28;20016;-92
2023/09/24 01:55:43;;;;;;;16.33;3.42;;;;;;;13.94;100.00;100569.56;5082409;28;20387;-91
2023/09/24 01:58:09;;;;;;;17.50;2.88;;;;;;;14.04;100.00;100564.56;5071200;28;20033;-92
2023/09/24 02:00:36;;;;;;;10.27;2.45;;;;;;;14.05;100.00;100572.25;5073983;28;20020;-92
2023/09/24 02:03:05;;;;;;;10.75;3.10;;;;;;;14.06;100.00;100578.28;5090067;28;20032;-91
2023/09/24 02:05:35;;;;;;;8.77;2.70;;;;;;;14.12;100.00;100557.09;5073738;28;20056;-93
2023/09/24 02:08:09;;;;;;;14.48;2.80;;;;;;;14.15;100.00;100556.03;5071285;28;20017;-92
2023/09/24 02:10:38;;;;;;;15.93;2.63;;;;;;;14.17;100.00;100556.75;5073237;28;20055;-91
2023/09/24 02:13:04;;;;;;;10.98;3.13;;;;;;;14.16;100.00;100552.50;5074919;28;20024;-91
2023/09/24 02:15:29;;;;;;;10.02;2.85;;;;;;;14.18;100.00;100564.44;5075032;28;20031;-92
2023/09/24 02:17:55;;;;;;;10.00;2.65;;;;;;;14.19;100.00;100557.47;5073724;28;20024;-92
2023/09/24 02:20:25;;;;;;;14.88;2.40;;;;;;;14.18;100.00;100571.41;5074810;28;20381;-91
2023/09/24 02:22:56;;;;;;;11.10;2.42;;;;;;;14.23;100.00;100564.94;5074446;28;20078;-91
2023/09/24 02:25:26;;;;;;;19.70;3.47;;;;;;;14.22;100.00;100557.28;5073456;28;20378;-91
2023/09/24 02:27:52;;;;;;;8.02;2.53;;;;;;;14.28;100.00;100562.00;5074642;28;20434;-91
2023/09/24 02:30:21;;;;;;;13.68;1.88;;;;;;;14.28;100.00;100556.81;5094055;28;20085;-92
2023/09/24 02:32:47;;;;;;;10.23;2.33;;;;;;;14.28;100.00;100554.22;5094842;28;20024;-92
2023/09/24 02:35:14;;;;;;;14.07;2.53;;;;;;;14.29;100.00;100555.91;5094617;28;20073;-92
2023/09/24 02:37:40;;;;;;;12.68;1.75;;;;;;;14.31;100.00;100546.22;5094758;28;20021;-92
2023/09/24 02:40:09;;;;;;;7.07;1.98;;;;;;;14.32;100.00;100550.47;5093288;28;20036;-92
2023/09/24 02:42:35;;;;;;;8.57;1.95;;;;;;;14.34;100.00;100551.22;5093425;28;20473;-92
2023/09/24 02:45:01;;;;;;;10.10;1.83;;;;;;;14.35;100.00;100552.84;5094567;28;20039;-91
2023/09/24 02:47:27;;;;;;;9.13;2.30;;;;;;;14.37;100.00;100550.97;5093491;28;20453;-92
2023/09/24 02:49:53;;;;;;;14.45;2.90;;;;;;;14.38;100.00;100539.63;5073928;28;20112;-92
2023/09/24 02:52:18;;;;;;;14.50;2.42;;;;;;;14.40;100.00;100539.53;5054095;28;20104;-92
2023/09/24 02:54:44;;;;;;;12.93;2.97;;;;;;;14.39;100.00;100536.13;5068342;28;20028;-91
2023/09/24 02:57:09;;;;;;;18.85;2.65;;;;;;;14.40;100.00;100529.97;5074090;28;20032;-91
2023/09/24 02:59:35;;;;;;;8.55;2.05;;;;;;;14.40;100.00;100535.16;5087268;28;20530;-92
2023/09/24 03:02:00;;;;;;;9.73;2.35;;;;;;;14.44;100.00;100530.59;5094828;28;20046;-92
2023/09/24 03:04:26;;;;;;;13.82;2.72;;;;;;;14.45;100.00;100527.06;5079834;28;20459;-92
2023/09/24 03:06:52;;;;;;;9.43;2.20;;;;;;;14.43;100.00;100534.94;5073916;28;20050;-91
2023/09/24 03:09:18;;;;;;;10.75;2.70;;;;;;;14.58;100.00;100534.81;5072919;28;20066;-92
2023/09/24 03:11:43;;;;;;;10.13;2.20;;;;;;;14.54;100.00;100529.03;5073902;28;20020;-92
2023/09/24 03:14:08;;;;;;;8.57;2.30;;;;;;;14.59;100.00;100528.69;5073918;28;20528;-92
2023/09/24 03:16:34;;;;;;;13.32;2.88;;;;;;;14.66;100.00;100538.53;5073735;28;20466;-92
2023/09/24 03:19:02;;;;;;;14.35;2.58;;;;;;;14.65;100.00;100528.22;5073631;28;20032;-91
2023/09/24 03:21:28;;;;;;;13.35;2.95;;;;;;;14.70;100.00;100526.13;5072286;28;20057;-91
2023/09/24 03:23:53;;;;;;;12.35;2.58;;;;;;;14.72;100.00;100527.66;5073608;28;20470;-91
2023/09/24 03:26:19;;;;;;;13.38;2.55;;;;;;;14.67;100.00;100527.19;5073445;28;20029;-91
2023/09/24 03:28:45;;;;;;;15.38;2.85;;;;;;;14.71;100.00;100525.19;5083321;28;20038;-92
2023/09/24 03:31:15;;;;;;;18.60;3.58;;;;;;;14.71;100.00;100531.22;5093904;28;20020;-92
2023/09/24 03:33:40;;;;;;;22.02;3.92;;;;;;;14.72;100.00;100522.47;5092387;28;20129;-92
2023/09/24 03:36:08;;;;;;;16.88;2.67;;;;;;;14.75;100.00;100531.81;5093768;28;20055;-92
2023/09/24 03:38:36;;;;;;;14.63;3.17;;;;;;;14.76;100.00;100529.09;5093712;28;20024;-91
2023/09/24 03:41:03;;;;;;;14.25;2.78;;;;;;;14.72;100.00;100525.06;5093183;28;20085;-91
2023/09/24 03:43:29;;;;;;;13.43;3.13;;;;;;;14.74;100.00;100527.56;5087870;28;20779;-91
2023/09/24 03:45:54;;;;;;;28.38;4.30;;;;;;;14.80;100.00;100521.91;5072853;28;20466;-91
2023/09/24 03:48:20;;;;;;;19.63;2.97;;;;;;;14.81;100.00;100523.56;5071755;28;20111;-92
2023/09/24 03:50:45;;;;;;;18.05;2.42;;;;;;;14.85;100.00;100517.22;5073220;28;20110;-91
2023/09/24 03:53:11;;;;;;;18.30;3.95;;;;;;;14.80;100.00;100521.91;5072889;28;20111;-91
2023/09/24 03:55:37;;;;;;;18.90;3.15;;;;;;;14.82;100.00;100520.03;5073141;28;20029;-91
2023/09/24 03:58:05;;;;;;;14.25;3.10;;;;;;;14.80;100.00;100508.91;5076496;28;20035;-92
2023/09/24 04:00:31;;;;;;;20.83;3.45;;;;;;;14.81;100.00;100513.19;5093772;28;20024;-92
2023/09/24 04:02:56;;;;;;;16.13;2.92;;;;;;;14.77;100.00;100516.94;5092938;28;20111;-92
2023/09/24 04:05:22;;;;;;;12.07;2.60;;;;;;;14.77;100.00;100522.13;5093095;28;20026;-91
2023/09/24 04:07:50;;;;;;;20.48;3.58;;;;;;;14.70;100.00;100515.72;5093054;28;20077;-91
2023/09/24 04:10:16;;;;;;;20.10;3.50;;;;;;;14.70;100.00;100515.72;5091757;28;20024;-92
2023/09/24 04:12:51;;;;;;;18.45;2.97;;;;;;;14.70;100.00;100519.19;5089900;28;20119;-92
2023/09/24 04:15:18;;;;;;;20.83;3.30;;;;;;;14.66;100.00;100514.31;5072635;28;20470;-92
2023/09/24 04:17:46;;;;;;;19.08;3.63;;;;;;;14.66;100.00;100514.31;5071271;28;20437;-92
2023/09/24 04:20:15;;;;;;;18.70;3.88;;;;;;;14.69;100.00;100516.69;5071204;28;20048;-92
2023/09/24 04:22:44;;;;;;;17.30;3.28;;;;;;;14.72;100.00;100516.44;5074994;28;20047;-92
2023/09/24 04:25:20;;;;;;;21.35;3.55;;;;;;;14.74;100.00;100520.59;5091640;28;20378;-92
2023/09/24 04:27:46;;;;;;;14.73;3.58;;;;;;;14.77;100.00;100519.53;5091435;28;20588;-92
2023/09/24 04:30:16;;;;;;;14.70;2.58;;;;;;;14.85;100.00;100517.22;5092902;28;20054;-91
2023/09/24 04:32:43;;;;;;;14.90;2.90;;;;;;;14.86;100.00;100513.66;5091457;28;20029;-92
2023/09/24 04:35:10;;;;;;;24.17;2.55;;;;;;;14.95;100.00;100507.78;5072371;28;20051;-91
2023/09/24 04:37:36;;;;;;;19.52;3.13;;;;;;;15.03;100.00;100506.38;5072607;28;20024;-92
2023/09/24 04:40:02;;;;;;;14.02;2.33;;;;;;;15.06;100.00;100508.75;5070928;28;20435;-91
2023/09/24 04:42:27;;;;;;;20.77;3.75;;;;;;;15.10;100.00;100512.78;5072051;28;20028;-92
2023/09/24 04:44:52;;;;;;;21.23;3.05;;;;;;;15.13;100.00;100509.94;5089748;28;20028;-91
2023/09/24 04:47:18;;;;;;;17.05;2.42;;;;;;;15.16;100.00;100512.31;5092395;28;20016;-93
2023/09/24 04:49:43;;;;;;;11.35;2.85;;;;;;;15.17;100.00;100508.78;5092507;28;20084;-92
2023/09/24 04:52:09;;;;;;;15.02;2.60;;;;;;;15.25;100.00;100505.59;5091989;28;20020;-93
2023/09/24 04:54:34;;;;;;;13.20;2.47;;;;;;;15.29;100.00;100502.66;5091305;28;20028;-92
2023/09/24 04:56:59;;;;;;;17.20;4.55;;;;;;;15.30;100.00;100514.69;5092209;28;20028;-92
2023/09/24 04:59:25;;;;;;;15.60;2.88;;;;;;;15.33;100.00;100514.44;5092350;28;20103;-92
2023/09/24 05:01:50;;;;;;;14.45;2.35;;;;;;;15.30;100.00;100512.09;5092065;28;20027;-92
2023/09/24 05:04:17;;;;;;;17.25;2.92;;;;;;;15.33;100.00;100517.06;5092230;28;20040;-93
2023/09/24 05:06:42;;;;;;;13.50;2.22;;;;;;;15.43;100.00;100511.97;5092381;28;20470;-92
2023/09/24 05:09:08;;;;;;;15.82;2.25;;;;;;;15.43;100.00;100516.34;5073585;28;20043;-92
2023/09/24 05:11:33;;;;;;;14.45;2.30;;;;;;;15.34;100.00;100510.94;5070569;28;20408;-92
2023/09/24 05:13:58;;;;;;;13.23;2.03;;;;;;;15.33;100.00;100519.66;5071866;28;20108;-93
2023/09/24 05:16:24;;;;;;;7.50;1.98;;;;;;;15.34;100.00;100510.94;5070520;28;20024;-92
2023/09/24 05:18:50;;;;;;;8.38;1.83;;;;;;;15.43;100.00;100514.56;5071698;28;20029;-92
2023/09/24 05:21:17;;;;;;;11.90;1.85;;;;;;;15.38;100.00;100517.53;5071775;28;20033;-93
2023/09/24 05:23:43;;;;;;;9.32;1.52;;;;;;;15.46;100.00;100508.31;5071543;28;20066;-92
2023/09/24 05:26:13;;;;;;;12.85;1.92;;;;;;;15.48;100.00;100512.44;5071612;28;20028;-93
2023/09/24 05:28:39;;;;;;;13.50;1.77;;;;;;;15.47;100.00;100523.00;5071990;28;20113;-92
2023/09/24 05:31:04;;;;;;;9.57;1.95;;;;;;;15.44;100.00;100520.63;5070403;28;20482;-91
2023/09/24 05:33:29;;;;;;;8.98;1.23;;;;;;;15.45;100.00;100517.06;5071397;28;20123;-92
2023/09/24 05:35:55;;;;;;;10.43;1.85;;;;;;;15.45;100.00;100517.06;5071688;28;20025;-93
2023/09/24 05:38:21;;;;;;;3.85;1.10;;;;;;;15.47;100.00;100520.38;5080771;28;20024;-92
2023/09/24 05:40:46;;;;;;;7.45;1.33;;;;;;;15.48;100.00;100517.66;5090323;28;20107;-93
2023/09/24 05:43:11;;;;;;;11.80;2.08;;;;;;;15.44;100.00;100521.44;5091471;28;20020;-92
2023/09/24 05:45:47;;;;;;;6.68;1.40;;;;;;;15.39;100.00;100521.81;5093818;28;20028;-92
2023/09/24 05:48:16;;;;;;;8.35;1.23;;;;;;;15.37;100.00;100521.09;5083536;28;20112;-92
2023/09/24 05:50:43;;;;;;;8.60;1.20;;;;;;;15.35;100.00;100522.97;5074272;28;20403;-92
2023/09/24 05:53:09;;;;;;;8.75;1.80;;;;;;;15.34;100.00;100526.53;5075372;28;20463;-92
2023/09/24 05:55:35;;;;;;;5.18;1.10;;;;;;;15.41;100.00;100530.31;5075376;28;20033;-92
2023/09/24 05:58:00;;;;;;;5.53;1.33;;;;;;;15.32;100.00;100525.00;5074021;28;20078;-92
2023/09/24 06:00:28;;;;;;;4.15;1.00;;;;;;;15.41;100.00;100526.88;5075359;28;20082;-92
2023/09/24 06:02:54;;;;;;;6.80;2.65;;;;;;;15.39;100.00;100528.78;5084407;28;20020;-92
2023/09/24 06:05:19;;;;;;;5.25;0.80;;;;;;;15.35;100.00;100530.78;5094428;28;20024;-93
2023/09/24 06:07:44;;;;;;;5.93;0.95;;;;;;;15.27;100.00;100540.94;5095366;28;20103;-92
2023/09/24 06:10:10;;;;;;;7.05;1.13;;;;;;;15.28;100.00;100544.34;5094111;28;20229;-92
2023/09/24 06:12:36;;;;;;;8.40;1.00;;;;;;;15.27;100.00;100543.53;5084901;28;20520;-93
2023/09/24 06:15:03;;;;;;;5.05;0.75;;;;;;;15.24;100.00;100540.31;5075036;28;20086;-92
2023/09/24 06:17:29;;;;;;;3.10;1.17;;;;;;;15.19;100.00;100545.88;5073783;28;20025;-92
2023/09/24 06:19:55;;;;;;;8.25;1.00;;;;;;;15.22;100.00;100543.06;5078887;28;20016;-92
2023/09/24 06:22:22;;;;;;;2.88;0.57;;;;;;;15.23;100.00;100552.50;5095009;28;20031;-93
2023/09/24 06:24:50;;;;;;;4.82;0.77;;;;;;;15.22;100.00;100552.63;5095071;28;20039;-91
2023/09/24 06:27:16;;;;;;;2.65;0.80;;;;;;;15.30;100.00;100555.47;5093872;28;20024;-91
2023/09/24 06:29:42;;;;;;;4.45;0.52;;;;;;;15.24;100.00;100556.78;5093138;28;20023;-93
2023/09/24 06:32:08;;;;;;;1.88;0.57;;;;;;;15.32;100.00;100544.00;5094892;28;20027;-92
2023/09/24 06:34:35;;;;;;;6.20;0.80;;;;;;;15.29;100.00;100548.59;5090370;28;20073;-93
2023/09/24 06:37:00;;;;;;;4.47;0.50;;;;;;;15.30;100.00;100558.06;5074530;28;20028;-92
2023/09/24 06:39:26;;;;;;;6.60;1.02;;;;;;;15.29;100.00;100549.44;5073333;28;20020;-92
2023/09/24 06:41:51;;;;;;;3.17;0.60;;;;;;;15.29;100.00;100549.44;5076747;28;20024;-91
2023/09/24 06:44:22;;;;;;;1.85;0.47;;;;;;;15.29;100.00;100549.44;5094534;28;20066;-92
2023/09/24 06:46:47;;;;;;;1.48;0.25;;;;;;;15.33;100.00;100550.84;5094504;28;20086;-91
2023/09/24 06:49:13;;;;;;;1.50;0.38;;;;;;;15.31;100.00;100546.72;5094595;28;20062;-91
2023/09/24 06:51:38;;;;;;;3.47;0.85;;;;;;;15.33;100.00;100545.66;5093084;28;20030;-92
2023/09/24 06:54:07;;;;;;;2.53;0.57;;;;;;;15.39;100.00;100550.41;5084129;28;20459;-94
2023/09/24 06:56:32;;;;;;;4.55;0.82;;;;;;;15.39;100.00;100555.59;5057422;28;20024;-91
2023/09/24 06:58:57;;;;;;;4.72;0.85;;;;;;;15.41;100.00;100556.31;5079464;28;20075;-92
2023/09/24 07:01:23;;;;;;;2.60;0.50;;;;;;;15.38;100.00;100553.94;5073255;28;20036;-93
2023/09/24 07:03:48;;;;;;;2.83;1.20;;;;;;;15.37;100.00;100547.09;5088016;28;20111;-92
2023/09/24 07:06:15;;;;;;;3.45;0.75;;;;;;;15.35;100.00;100548.16;5079487;28;20043;-91
2023/09/24 07:08:41;;;;;;;6.50;1.05;;;;;;;15.37;100.00;100544.50;5073840;28;20041;-91
2023/09/24 07:11:24;;;;;;;3.38;0.80;;;;;;;15.46;100.00;100549.94;5075638;28;20101;-91
2023/09/24 07:13:50;;;;;;;4.65;0.80;;;;;;;15.46;100.00;100555.13;5073788;28;20024;-92
2023/09/24 07:16:16;;;;;;;7.88;1.45;;;;;;;15.47;100.00;100547.22;5073399;28;20459;-92
2023/09/24 07:18:42;;;;;;;3.17;0.85;;;;;;;15.49;100.00;100544.50;5072283;28;20020;-91
2023/09/24 07:21:07;;;;;;;7.43;1.90;;;;;;;15.47;100.00;100559.41;5083432;28;20031;-92
2023/09/24 07:23:32;;;;;;;5.93;1.38;;;;;;;15.50;100.00;100551.38;5077189;28;20086;-91
2023/09/24 07:25:58;;;;;;;9.85;1.58;;;;;;;15.56;100.00;100549.13;5072987;28;20405;-91
2023/09/24 07:28:25;;;;;;;7.35;1.83;;;;;;;15.54;100.00;100551.00;5091788;28;20028;-92
2023/09/24 07:30:53;;;;;;;7.10;1.42;;;;;;;15.59;100.00;100530.66;5081133;28;20545;-92
2023/09/24 07:33:21;;;;;;;12.75;1.85;;;;;;;15.60;100.00;100541.91;5093399;28;20037;-92
2023/09/24 07:35:46;;;;;;;13.60;1.90;;;;;;;15.60;100.00;100547.09;5085102;28;20042;-92
2023/09/24 07:38:12;;;;;;;10.40;2.08;;;;;;;15.65;100.00;100546.75;5071933;28;20025;-92
2023/09/24 07:40:37;;;;;;;12.90;2.40;;;;;;;15.68;100.00;100549.97;5073413;28;20032;-91
2023/09/24 07:43:03;;;;;;;14.73;2.85;;;;;;;15.70;100.00;100537.66;5072809;28;20042;-91
2023/09/24 07:45:28;;;;;;;10.65;1.80;;;;;;;15.67;100.00;100543.09;5081333;28;20121;-91
2023/09/24 07:47:54;;;;;;;16.95;2.53;;;;;;;15.75;100.00;100545.13;5091974;28;20497;-91
2023/09/24 07:50:19;;;;;;;19.77;2.85;;;;;;;15.71;100.00;100536.75;5084483;28;20025;-91
2023/09/24 07:52:44;;;;;;;15.27;2.92;;;;;;;15.78;100.00;100544.91;5083066;28;20036;-92
2023/09/24 07:55:10;;;;;;;8.73;2.38;;;;;;;15.78;100.00;100544.91;5085712;28;20056;-91
2023/09/24 07:57:35;;;;;;;15.70;2.67;;;;;;;15.73;100.00;100557.44;5069229;28;20059;-91
2023/09/24 08:00:01;;;;;;;15.80;2.60;;;;;;;15.78;100.00;100545.72;5071918;28;20110;-94
2023/09/24 08:02:27;;;;;;;14.88;2.35;;;;;;;15.79;100.00;100541.34;5070859;28;20120;-92
2023/09/24 08:04:52;;;;;;;16.75;2.72;;;;;;;15.77;100.00;100558.84;5072899;28;20029;-92
2023/09/24 08:07:18;;;;;;;20.35;3.15;;;;;;;15.78;100.00;100561.34;5070759;28;20028;-93
2023/09/24 08:09:43;;;;;;;19.02;3.00;;;;;;;15.87;100.00;100559.78;5062389;28;20077;-92
2023/09/24 08:12:08;;;;;;;14.10;1.98;;;;;;;15.87;100.00;100564.16;5089158;28;20506;-92
2023/09/24 08:14:34;;;;;;;12.52;2.67;;;;;;;15.86;100.00;100557.31;5052289;28;20393;-92
2023/09/24 08:16:59;;;;;;;15.40;2.90;;;;;;;15.87;100.00;100564.16;5052906;28;20025;-93
2023/09/24 08:19:30;;;;;;;16.13;2.72;;;;;;;15.86;100.00;100567.72;5065287;28;20150;-93
2023/09/24 08:21:57;;;;;;;10.98;2.10;;;;;;;15.79;100.00;100568.19;5082627;28;20020;-92
2023/09/24 08:24:22;;;;;;;16.08;2.90;;;;;;;15.73;100.00;100568.69;5075367;28;20037;-91
2023/09/24 08:26:48;;;;;;;22.00;3.15;;;;;;;15.73;100.00;100573.88;5082380;28;20031;-92
2023/09/24 08:29:14;;;;;;;14.93;2.85;;;;;;;15.73;100.00;100571.28;5077147;28;20078;-91
2023/09/24 08:31:39;;;;;;;19.95;3.15;;;;;;;15.71;100.00;100575.78;5078267;28;20028;-91
2023/09/24 08:34:15;;;;;;;;;;;;;;;;;;;;;
2023/09/24 08:36:40;;;;;;;11.98;2.33;;;;;;;15.72;100.00;100572.22;5080301;28;20497;-92
2023/09/24 08:39:14;;;;;;;18.63;2.70;;;;;;;15.69;100.00;100574.19;5069083;28;20032;-90
2023/09/24 08:41:44;;;;;;;12.80;2.67;;;;;;;15.76;100.00;100578.84;5079759;28;20028;-91
2023/09/24 08:44:15;;;;;;;17.67;3.15;;;;;;;15.71;100.00;100564.53;5070164;28;20043;-91
2023/09/24 08:46:42;;;;;;;15.70;2.22;;;;;;;15.77;100.00;100562.28;5081977;28;20032;-91
2023/09/24 08:49:08;;;;;;;13.57;2.75;;;;;;;15.69;100.00;100562.00;5070792;28;20032;-91
2023/09/24 08:51:33;;;;;;;17.00;2.88;;;;;;;15.71;100.00;100565.38;5068875;28;20117;-90
2023/09/24 08:54:00;;;;;;;18.27;3.85;;;;;;;15.72;100.00;100561.81;5078640;28;20392;-90
2023/09/24 08:56:26;;;;;;;16.38;2.95;;;;;;;15.78;100.00;100568.34;5090073;28;20481;-92
2023/09/24 08:58:53;;;;;;;15.98;3.38;;;;;;;15.94;100.00;100565.34;5087656;28;20031;-91
2023/09/24 09:01:20;;;;;;;18.33;3.15;;;;;;;15.94;100.00;100565.34;5090898;28;20493;-94
2023/09/24 09:03:46;;;;;;;11.15;2.65;;;;;;;16.04;100.00;100571.50;5089042;28;20047;-95
2023/09/24 09:06:29;;;;;;;19.63;3.42;;;;;;;16.05;100.00;100570.56;5081141;28;20033;-90
2023/09/24 09:08:55;;;;;;;22.10;3.60;;;;;;;16.16;100.00;100567.91;5068743;28;20391;-90
2023/09/24 09:11:21;;;;;;;15.55;3.42;;;;;;;16.20;100.00;100566.75;5078552;28;20028;-91
2023/09/24 09:13:49;;;;;;;17.27;4.05;;;;;;;16.32;100.00;100561.50;5088401;28;20024;-89
2023/09/24 09:16:16;;;;;;;26.83;5.25;;;;;;;16.39;100.00;100562.69;5091510;28;20024;-91
2023/09/24 09:18:42;;;;;;;16.05;2.83;;;;;;;16.32;100.00;100571.94;5090481;28;20020;-90
2023/09/24 09:21:07;;;;;;;16.92;3.35;;;;;;;16.41;100.00;100568.56;5090081;28;20081;-89
2023/09/24 09:23:37;;;;;;;21.83;3.40;;;;;;;16.46;100.00;100567.28;5082167;28;20059;-89
2023/09/24 09:26:02;;;;;;;16.40;2.72;;;;;;;16.51;100.00;100566.91;5083439;28;20028;-89
2023/09/24 09:28:30;;;;;;;19.23;2.95;;;;;;;16.52;100.00;100568.56;5088982;28;20039;-91
2023/09/24 09:31:07;;;;;;;14.90;2.47;;;;;;;16.64;100.00;100570.16;5083725;28;20025;-91
2023/09/24 09:33:37;;;;;;;17.20;3.28;;;;;;;16.60;100.00;100568.75;5073799;28;20466;-92
2023/09/24 09:36:03;;;;;;;19.20;2.25;;;;;;;16.62;100.00;100571.25;5078150;28;20367;-93
2023/09/24 09:38:29;;;;;;;12.18;2.13;;;;;;;16.46;100.00;100571.66;5076307;28;20123;-91
2023/09/24 09:40:56;;;;;;;18.30;3.28;;;;;;;16.45;100.00;100577.81;5091341;28;20481;-91
2023/09/24 09:43:25;;;;;;;23.90;3.38;;;;;;;16.51;100.00;100564.31;5091529;28;20028;-91
2023/09/24 09:45:52;;;;;;;11.00;2.08;;;;;;;16.54;100.00;100569.25;5091366;28;20031;-90
2023/09/24 09:48:29;;;;;;;15.52;2.53;;;;;;;16.46;100.00;100571.66;5085352;28;20017;-90
2023/09/24 09:50:59;;;;;;;14.68;2.58;;;;;;;16.37;100.00;100575.00;5078827;28;20060;-88
2023/09/24 09:53:32;;;;;;;14.30;2.83;;;;;;;16.36;100.00;100573.31;5091351;28;20038;-88
2023/09/24 09:56:00;;;;;;;13.80;2.63;;;;;;;16.46;100.00;100571.66;5080942;28;20033;-89
2023/09/24 09:58:26;;;;;;;16.98;2.55;;;;;;;16.41;100.00;100565.97;5073662;28;20723;-89
2023/09/24 10:00:52;;;;;;;12.10;3.00;;;;;;;16.61;100.00;100565.22;5076747;28;20020;-89
2023/09/24 10:03:19;;;;;;;9.85;2.25;;;;;;;16.72;100.00;100564.34;5084808;28;20028;-89
2023/09/24 10:05:46;;;;;;;18.35;2.40;;;;;;;16.90;100.00;100559.44;5079684;28;20386;-89
2023/09/24 10:08:35;;;;;;;13.00;2.90;;;;;;;16.90;100.00;100549.03;5088776;28;20031;-89
2023/09/24 10:11:01;;;;;;;12.13;2.38;;;;;;;17.57;100.00;100546.94;5068672;28;20108;-95
2023/09/24 10:13:43;;;;;;;14.43;2.10;;;;;;;17.50;100.00;100546.63;5082979;28;20067;-92
2023/09/24 10:16:32;;;;;;;17.08;2.90;;;;;;;17.77;100.00;100553.88;5086369;28;20028;-92
2023/09/24 10:19:03;;;;;;;12.45;2.30;;;;;;;17.91;100.00;100556.16;5090743;28;20035;-89
2023/09/24 10:21:37;;;;;;;10.75;2.13;;;;;;;18.06;100.00;100545.34;5087166;28;20028;-89
2023/09/24 10:24:12;;;;;;;14.77;2.88;;;;;;;17.95;100.00;100547.09;5070252;28;20082;-90
2023/09/24 10:27:06;;;;;;;13.73;2.22;;;;;;;17.97;100.00;100549.56;5067235;28;20470;-88
2023/09/24 10:29:44;;;;;;;17.80;3.00;;;;;;;17.85;100.00;100543.63;5088909;28;20020;-91
2023/09/24 10:32:23;;;;;;;13.20;2.00;;;;;;;17.95;100.00;100547.09;5079268;28;20028;-92
2023/09/24 10:34:55;;;;;;;12.45;2.35;;;;;;;17.96;100.00;100559.19;5053258;28;20029;-95
2023/09/24 10:37:25;;;;;;;;;;;;;;;17.75;100.00;100548.78;5061232;28;20056;-94
2023/09/24 10:40:00;;;;;;;24.67;2.67;;;;;;;17.85;100.00;100541.03;5120146;22;19929;-96
2023/09/24 10:42:29;;;;;;;20.88;2.75;;;;;;;17.86;100.00;100547.88;5058366;28;20013;-96
2023/09/24 10:45:07;;;;;;;14.45;2.22;;;;;;;17.77;100.00;100559.09;5044987;28;20040;-95
2023/09/24 10:47:37;;;;;;;15.98;2.95;;;;;;;17.85;100.00;100556.69;5041412;28;20028;-96
2023/09/24 10:50:03;;;;;;;20.87;2.13;;;;;;;17.75;100.00;100558.38;5045705;28;20033;-96
2023/09/24 10:52:29;;;;;;;12.43;2.15;;;;;;;17.66;100.00;100556.59;5039277;28;20277;-96
2023/09/24 10:55:01;;;;;;;16.40;3.65;;;;;;;17.57;100.00;100547.75;5038793;28;20111;-95
2023/09/24 10:57:28;;;;;;;17.05;2.35;;;;;;;17.82;100.00;100545.66;5037189;28;20030;-96
2023/09/24 10:59:54;;;;;;;17.20;2.70;;;;;;;17.80;100.00;100553.66;5047175;28;20040;-96
2023/09/24 11:02:20;;;;;;;15.38;2.25;;;;;;;17.55;100.00;100550.47;5042840;28;20025;-95
2023/09/24 11:04:50;;;;;;;12.88;3.30;;;;;;;17.53;100.00;100562.84;5036764;28;20041;-96
2023/09/24 11:07:16;;;;;;;12.55;2.65;;;;;;;17.50;100.00;100552.66;5213199;22;20170;-94
2023/09/24 11:12:35;;;;;;;14.38;2.28;;;;;;;17.63;100.00;100562.03;5517325;22;20418;-96
2023/09/24 11:15:02;;;;;;;13.02;3.08;;;;;;;17.54;100.00;100551.44;5076950;28;20020;-96